createdAt,value
2019-02-08T00:00:55.538Z,49.16
2019-02-08T00:01:58.446Z,49.19
2019-02-08T00:03:00.674Z,49.18
2019-02-08T00:04:02.913Z,49.17
2019-02-08T00:05:05.286Z,49.16
2019-02-08T00:06:07.484Z,49.18
2019-02-08T00:07:09.700Z,49.17
2019-02-08T00:08:11.900Z,49.20
2019-02-08T00:09:14.568Z,49.19
2019-02-08T00:10:16.806Z,49.21
2019-02-08T00:11:19.023Z,49.21
2019-02-08T00:12:21.249Z,49.19
2019-02-08T00:13:23.457Z,49.21
2019-02-08T00:14:25.667Z,49.21
2019-02-08T00:15:27.883Z,49.20
2019-02-08T00:16:30.080Z,49.21
2019-02-08T00:17:33.810Z,49.21
2019-02-08T00:18:36.131Z,49.19
2019-02-08T00:19:38.718Z,49.19
2019-02-08T00:20:40.862Z,49.20
2019-02-08T00:21:46.303Z,49.20
2019-02-08T00:22:48.510Z,49.20
2019-02-08T00:23:52.862Z,49.20
2019-02-08T00:24:55.065Z,49.18
2019-02-08T00:25:57.278Z,49.19
2019-02-08T00:26:59.491Z,49.20
2019-02-08T00:28:01.689Z,49.21
2019-02-08T00:29:03.897Z,49.21
2019-02-08T00:30:06.105Z,49.22
2019-02-08T00:31:08.637Z,49.21
2019-02-08T00:32:10.884Z,49.20
2019-02-08T00:33:13.083Z,49.20
2019-02-08T00:34:15.286Z,49.21
2019-02-08T00:35:18.707Z,49.22
2019-02-08T00:36:20.903Z,49.21
2019-02-08T00:37:23.139Z,49.19
2019-02-08T00:38:25.355Z,49.22
2019-02-08T00:39:27.553Z,49.24
2019-02-08T00:40:29.776Z,49.25
2019-02-08T00:41:32.299Z,49.23
2019-02-08T00:42:34.495Z,49.20
2019-02-08T00:43:36.701Z,49.19
2019-02-08T00:44:38.954Z,49.21
2019-02-08T00:45:41.161Z,49.23
2019-02-08T00:46:43.380Z,49.21
2019-02-08T00:47:45.597Z,49.24
2019-02-08T00:48:47.801Z,49.23
2019-02-08T00:49:50.020Z,49.24
2019-02-08T00:50:52.345Z,49.22
2019-02-08T00:51:54.862Z,49.24
2019-02-08T00:52:57.066Z,49.21
2019-02-08T00:53:59.276Z,49.20
2019-02-08T00:55:01.495Z,49.22
2019-02-08T00:56:03.707Z,49.23
2019-02-08T00:57:05.902Z,49.21
2019-02-08T00:58:08.133Z,49.21
2019-02-08T00:59:10.347Z,49.20
2019-02-08T01:00:12.805Z,49.18
2019-02-08T01:01:15.043Z,49.21
2019-02-08T01:02:20.101Z,49.21
2019-02-08T01:03:22.308Z,49.20
2019-02-08T01:04:24.515Z,49.20
2019-02-08T01:05:26.699Z,49.22
2019-02-08T01:06:28.911Z,49.21
2019-02-08T01:07:31.113Z,49.20
2019-02-08T01:08:33.342Z,49.22
2019-02-08T01:09:35.551Z,49.22
2019-02-08T01:10:37.758Z,49.22
2019-02-08T01:11:39.990Z,49.23
2019-02-08T01:12:42.494Z,49.24
2019-02-08T01:13:44.691Z,49.22
2019-02-08T01:14:46.888Z,49.21
2019-02-08T01:15:49.084Z,49.20
2019-02-08T01:16:51.305Z,49.22
2019-02-08T01:17:55.993Z,49.20
2019-02-08T01:18:58.203Z,49.19
2019-02-08T01:20:00.395Z,49.21
2019-02-08T01:21:02.608Z,49.20
2019-02-08T01:22:04.822Z,49.22
2019-02-08T01:23:07.354Z,49.21
2019-02-08T01:24:09.545Z,49.22
2019-02-08T01:25:11.750Z,49.24
2019-02-08T01:26:14.024Z,49.23
2019-02-08T01:27:16.240Z,49.21
2019-02-08T01:28:18.760Z,49.22
2019-02-08T01:29:21.345Z,49.20
2019-02-08T01:30:23.590Z,49.22
2019-02-08T01:31:26.190Z,49.22
2019-02-08T01:32:29.046Z,49.21
2019-02-08T01:33:31.792Z,49.19
2019-02-08T01:34:34.503Z,49.19
2019-02-08T01:35:37.276Z,49.22
2019-02-08T01:36:39.499Z,49.21
2019-02-08T01:37:41.704Z,49.20
2019-02-08T01:38:43.906Z,49.20
2019-02-08T01:39:46.185Z,49.23
2019-02-08T01:40:48.312Z,49.25
2019-02-08T01:41:50.538Z,49.24
2019-02-08T01:42:52.842Z,49.23
2019-02-08T01:43:57.440Z,49.21
2019-02-08T01:44:59.761Z,49.20
2019-02-08T01:46:01.904Z,49.23
2019-02-08T01:47:04.099Z,49.25
2019-02-08T01:48:06.300Z,49.25
2019-02-08T01:49:10.068Z,49.25
2019-02-08T01:50:12.266Z,49.25
2019-02-08T01:51:14.414Z,49.22
2019-02-08T01:52:16.649Z,49.23
2019-02-08T01:53:18.875Z,49.24
2019-02-08T01:54:21.094Z,49.24
2019-02-08T01:55:23.295Z,49.25
2019-02-08T01:56:25.487Z,49.23
2019-02-08T01:57:27.706Z,49.24
2019-02-08T01:58:29.923Z,49.23
2019-02-08T01:59:32.266Z,49.24
2019-02-08T02:00:34.456Z,49.25
2019-02-08T02:01:36.737Z,49.25
2019-02-08T02:02:38.940Z,49.20
2019-02-08T02:03:41.137Z,49.21
2019-02-08T02:04:43.347Z,49.22
2019-02-08T02:05:47.121Z,49.24
2019-02-08T02:06:49.354Z,49.23
2019-02-08T02:07:51.559Z,49.25
2019-02-08T02:08:56.534Z,49.23
2019-02-08T02:09:58.742Z,49.21
2019-02-08T02:11:00.947Z,49.23
2019-02-08T02:12:03.270Z,49.22
2019-02-08T02:13:05.482Z,49.23
2019-02-08T02:14:07.682Z,49.23
2019-02-08T02:15:09.819Z,49.23
2019-02-08T02:16:12.028Z,49.23
2019-02-08T02:17:16.018Z,49.22
2019-02-08T02:18:18.227Z,49.20
2019-02-08T02:19:20.424Z,49.20
2019-02-08T02:20:25.368Z,49.18
2019-02-08T02:21:27.559Z,49.20
2019-02-08T02:22:29.710Z,49.21
2019-02-08T02:23:31.910Z,49.18
2019-02-08T02:24:34.114Z,49.21
2019-02-08T02:25:36.311Z,49.23
2019-02-08T02:26:38.519Z,49.22
2019-02-08T02:27:40.746Z,49.22
2019-02-08T02:28:42.944Z,49.23
2019-02-08T02:29:45.151Z,49.23
2019-02-08T02:30:47.342Z,49.24
2019-02-08T02:31:49.547Z,49.25
2019-02-08T02:32:51.777Z,49.23
2019-02-08T02:33:53.969Z,49.23
2019-02-08T02:34:56.171Z,49.18
2019-02-08T02:35:59.756Z,49.20
2019-02-08T02:37:01.909Z,49.19
2019-02-08T02:38:04.140Z,49.21
2019-02-08T02:39:06.339Z,49.21
2019-02-08T02:40:08.543Z,49.21
2019-02-08T02:41:10.737Z,49.18
2019-02-08T02:42:12.951Z,49.18
2019-02-08T02:43:15.165Z,49.18
2019-02-08T02:44:17.300Z,49.21
2019-02-08T02:45:19.606Z,49.20
2019-02-08T02:46:23.867Z,49.20
2019-02-08T02:47:26.103Z,49.18
2019-02-08T02:48:28.311Z,49.17
2019-02-08T02:49:30.511Z,49.20
2019-02-08T02:50:32.718Z,49.21
2019-02-08T02:51:34.945Z,49.20
2019-02-08T02:52:37.156Z,49.21
2019-02-08T02:53:39.357Z,49.21
2019-02-08T02:54:41.567Z,49.20
2019-02-08T02:55:43.776Z,49.20
2019-02-08T02:56:45.988Z,49.17
2019-02-08T02:57:48.183Z,49.17
2019-02-08T02:58:50.318Z,49.21
2019-02-08T02:59:52.543Z,49.21
2019-02-08T03:00:54.728Z,49.24
2019-02-08T03:01:56.935Z,49.21
2019-02-08T03:02:59.259Z,49.21
2019-02-08T03:04:01.465Z,49.22
2019-02-08T03:05:03.678Z,49.23
2019-02-08T03:06:05.885Z,49.21
2019-02-08T03:07:08.081Z,49.22
2019-02-08T03:08:10.325Z,49.21
2019-02-08T03:09:12.526Z,49.20
2019-02-08T03:10:14.727Z,49.20
2019-02-08T03:11:16.945Z,49.21
2019-02-08T03:12:19.147Z,49.20
2019-02-08T03:13:21.377Z,49.19
2019-02-08T03:14:23.571Z,49.20
2019-02-08T03:15:25.783Z,49.18
2019-02-08T03:16:28.004Z,49.20
2019-02-08T03:17:30.236Z,49.25
2019-02-08T03:18:32.444Z,49.26
2019-02-08T03:19:34.684Z,49.24
2019-02-08T03:20:36.878Z,49.25
2019-02-08T03:21:39.082Z,49.22
2019-02-08T03:22:41.300Z,49.21
2019-02-08T03:23:43.511Z,49.20
2019-02-08T03:24:45.759Z,49.20
2019-02-08T03:25:47.937Z,49.20
2019-02-08T03:26:50.151Z,49.20
2019-02-08T03:27:52.375Z,49.18
2019-02-08T03:28:54.595Z,49.18
2019-02-08T03:29:56.805Z,49.21
2019-02-08T03:30:59.336Z,49.20
2019-02-08T03:32:01.554Z,49.21
2019-02-08T03:33:06.740Z,49.24
2019-02-08T03:34:08.942Z,49.24
2019-02-08T03:35:11.132Z,49.24
2019-02-08T03:36:13.337Z,49.23
2019-02-08T03:37:15.573Z,49.24
2019-02-08T03:38:17.837Z,49.16
2019-02-08T03:39:19.979Z,49.19
2019-02-08T03:40:22.182Z,49.22
2019-02-08T03:41:24.384Z,49.19
2019-02-08T03:42:26.661Z,49.21
2019-02-08T03:43:28.811Z,49.20
2019-02-08T03:44:31.197Z,49.21
2019-02-08T03:45:37.387Z,49.23
2019-02-08T03:46:41.756Z,49.21
2019-02-08T03:47:43.968Z,49.23
2019-02-08T03:48:46.181Z,49.19
2019-02-08T03:49:48.387Z,49.20
2019-02-08T03:50:50.595Z,49.21
2019-02-08T03:51:52.782Z,49.23
2019-02-08T03:52:55.009Z,49.20
2019-02-08T03:53:57.222Z,49.21
2019-02-08T03:54:59.422Z,49.24
2019-02-08T03:56:01.619Z,49.25
2019-02-08T03:57:03.821Z,49.25
2019-02-08T03:58:06.042Z,49.28
2019-02-08T03:59:08.259Z,49.28
2019-02-08T04:00:12.513Z,49.25
2019-02-08T04:01:15.181Z,49.24
2019-02-08T04:02:17.334Z,49.26
2019-02-08T04:03:19.554Z,49.24
2019-02-08T04:04:21.763Z,49.25
2019-02-08T04:05:23.983Z,49.25
2019-02-08T04:06:26.174Z,49.25
2019-02-08T04:07:28.371Z,49.25
2019-02-08T04:08:30.596Z,49.26
2019-02-08T04:09:32.803Z,49.26
2019-02-08T04:10:35.005Z,49.26
2019-02-08T04:11:37.217Z,49.24
2019-02-08T04:12:39.415Z,49.21
2019-02-08T04:13:41.649Z,49.24
2019-02-08T04:14:43.835Z,49.23
2019-02-08T04:15:46.843Z,49.25
2019-02-08T04:16:49.057Z,49.25
2019-02-08T04:17:53.743Z,49.22
2019-02-08T04:18:55.970Z,49.22
2019-02-08T04:19:58.195Z,49.26
2019-02-08T04:21:00.409Z,49.25
2019-02-08T04:22:02.611Z,49.27
2019-02-08T04:23:04.851Z,49.27
2019-02-08T04:24:07.060Z,49.29
2019-02-08T04:25:09.257Z,49.26
2019-02-08T04:26:11.458Z,49.27
2019-02-08T04:27:13.673Z,49.29
2019-02-08T04:28:15.889Z,49.28
2019-02-08T04:29:18.094Z,49.25
2019-02-08T04:30:20.306Z,49.27
2019-02-08T04:31:22.514Z,49.26
2019-02-08T04:32:24.815Z,49.28
2019-02-08T04:33:27.247Z,49.27
2019-02-08T04:34:29.463Z,49.25
2019-02-08T04:35:31.690Z,49.28
2019-02-08T04:36:33.863Z,49.28
2019-02-08T04:37:36.063Z,49.30
2019-02-08T04:38:38.290Z,49.27
2019-02-08T04:39:40.506Z,49.24
2019-02-08T04:40:42.704Z,49.25
2019-02-08T04:41:44.903Z,49.27
2019-02-08T04:42:47.111Z,49.26
2019-02-08T04:43:49.344Z,49.27
2019-02-08T04:44:52.668Z,49.27
2019-02-08T04:45:54.882Z,49.30
2019-02-08T04:46:57.086Z,49.27
2019-02-08T04:47:59.301Z,49.25
2019-02-08T04:49:01.525Z,49.27
2019-02-08T04:50:03.726Z,49.26
2019-02-08T04:51:06.021Z,49.29
2019-02-08T04:52:08.230Z,49.31
2019-02-08T04:53:10.434Z,49.31
2019-02-08T04:54:12.729Z,49.28
2019-02-08T04:55:14.944Z,49.27
2019-02-08T04:56:17.152Z,49.27
2019-02-08T04:57:19.356Z,49.28
2019-02-08T04:58:21.565Z,49.26
2019-02-08T04:59:23.791Z,49.26
2019-02-08T05:00:26.010Z,49.26
2019-02-08T05:01:28.210Z,49.27
2019-02-08T05:02:30.352Z,49.30
2019-02-08T05:03:32.583Z,49.31
2019-02-08T05:04:34.813Z,49.31
2019-02-08T05:05:37.010Z,49.31
2019-02-08T05:06:39.371Z,49.27
2019-02-08T05:07:41.590Z,49.26
2019-02-08T05:08:43.796Z,49.27
2019-02-08T05:09:46.200Z,49.27
2019-02-08T05:10:51.568Z,49.30
2019-02-08T05:11:53.775Z,49.32
2019-02-08T05:12:55.980Z,49.31
2019-02-08T05:13:58.189Z,49.31
2019-02-08T05:15:00.404Z,49.32
2019-02-08T05:16:02.599Z,49.29
2019-02-08T05:17:04.806Z,49.26
2019-02-08T05:18:07.018Z,49.26
2019-02-08T05:19:09.247Z,49.27
2019-02-08T05:20:11.463Z,49.26
2019-02-08T05:21:13.671Z,49.30
2019-02-08T05:22:15.898Z,49.26
2019-02-08T05:23:18.112Z,49.26
2019-02-08T05:24:20.434Z,49.27
2019-02-08T05:25:22.649Z,49.27
2019-02-08T05:26:24.884Z,49.26
2019-02-08T05:27:27.104Z,49.21
2019-02-08T05:28:29.299Z,49.17
2019-02-08T05:29:31.540Z,49.16
2019-02-08T05:30:33.748Z,49.17
2019-02-08T05:31:39.128Z,49.16
2019-02-08T05:32:41.361Z,49.16
2019-02-08T05:33:43.560Z,49.13
2019-02-08T05:34:45.805Z,49.16
2019-02-08T05:35:48.008Z,49.12
2019-02-08T05:36:50.202Z,49.12
2019-02-08T05:37:52.400Z,49.12
2019-02-08T05:38:54.658Z,49.12
2019-02-08T05:39:56.898Z,49.11
2019-02-08T05:40:59.107Z,49.11
2019-02-08T05:42:01.394Z,49.10
2019-02-08T05:43:03.535Z,49.08
2019-02-08T05:44:05.744Z,49.09
2019-02-08T05:45:07.947Z,49.08
2019-02-08T05:46:10.152Z,49.06
2019-02-08T05:47:12.454Z,49.08
2019-02-08T05:48:14.666Z,49.08
2019-02-08T05:49:16.903Z,49.07
2019-02-08T05:50:19.110Z,49.05
2019-02-08T05:51:21.316Z,49.07
2019-02-08T05:52:23.527Z,49.06
2019-02-08T05:53:25.729Z,49.03
2019-02-08T05:54:27.986Z,49.03
2019-02-08T05:55:31.899Z,49.01
2019-02-08T05:56:34.113Z,49.02
2019-02-08T05:57:36.326Z,49.03
2019-02-08T05:58:38.516Z,49.02
2019-02-08T05:59:40.723Z,49.02
2019-02-08T06:00:47.120Z,49.02
2019-02-08T06:01:49.338Z,49.04
2019-02-08T06:02:51.711Z,49.03
2019-02-08T06:03:53.980Z,49.06
2019-02-08T06:04:56.213Z,49.02
2019-02-08T06:05:58.617Z,49.04
2019-02-08T06:07:00.855Z,49.07
2019-02-08T06:08:03.145Z,49.08
2019-02-08T06:09:05.353Z,49.09
2019-02-08T06:10:07.566Z,49.10
2019-02-08T06:11:09.697Z,49.11
2019-02-08T06:12:11.905Z,49.09
2019-02-08T06:13:14.122Z,49.10
2019-02-08T06:14:16.349Z,49.12
2019-02-08T06:15:18.626Z,49.12
2019-02-08T06:16:20.819Z,49.13
2019-02-08T06:17:23.023Z,49.12
2019-02-08T06:18:25.236Z,49.13
2019-02-08T06:19:27.464Z,49.12
2019-02-08T06:20:29.710Z,49.12
2019-02-08T06:21:31.873Z,49.12
2019-02-08T06:22:34.095Z,49.12
2019-02-08T06:23:36.310Z,49.12
2019-02-08T06:24:38.544Z,49.13
2019-02-08T06:25:40.747Z,49.11
2019-02-08T06:26:42.974Z,49.08
2019-02-08T06:27:45.222Z,49.09
2019-02-08T06:28:47.429Z,49.07
2019-02-08T06:29:49.659Z,49.07
2019-02-08T06:30:51.896Z,49.06
2019-02-08T06:31:54.183Z,49.05
2019-02-08T06:32:56.500Z,49.03
2019-02-08T06:33:58.697Z,49.04
2019-02-08T06:35:00.925Z,49.04
2019-02-08T06:36:03.158Z,49.06
2019-02-08T06:37:05.411Z,49.08
2019-02-08T06:38:07.625Z,49.06
2019-02-08T06:39:09.922Z,49.07
2019-02-08T06:40:12.156Z,49.06
2019-02-08T06:41:14.369Z,49.04
2019-02-08T06:42:16.721Z,49.05
2019-02-08T06:43:18.942Z,49.02
2019-02-08T06:44:21.161Z,49.02
2019-02-08T06:45:23.393Z,49.02
2019-02-08T06:46:25.596Z,49.03
2019-02-08T06:47:27.791Z,49.03
2019-02-08T06:48:30.005Z,49.02
2019-02-08T06:49:32.321Z,49.02
2019-02-08T06:50:34.535Z,49.03
2019-02-08T06:51:36.761Z,49.05
2019-02-08T06:52:38.955Z,49.04
2019-02-08T06:53:41.153Z,49.04
2019-02-08T06:54:43.402Z,49.04
2019-02-08T06:55:45.625Z,49.02
2019-02-08T06:57:06.801Z,49.01
2019-02-08T06:58:40.230Z,49.00
2019-02-08T07:00:01.419Z,48.98
2019-02-08T07:01:37.837Z,49.00
2019-02-08T07:03:01.770Z,49.02
2019-02-08T07:04:27.929Z,49.01
2019-02-08T07:05:51.909Z,49.00
2019-02-08T07:07:00.071Z,49.01
2019-02-08T07:08:19.886Z,49.03
2019-02-08T07:09:44.059Z,49.02
2019-02-08T07:11:01.357Z,49.01
2019-02-08T07:12:21.415Z,49.00
2019-02-08T07:13:42.566Z,49.01
2019-02-08T07:15:06.457Z,49.01
2019-02-08T07:17:50.930Z,49.01
2019-02-08T07:19:15.336Z,49.02
2019-02-08T07:20:39.406Z,49.02
2019-02-08T07:21:52.903Z,49.02
2019-02-08T07:23:16.875Z,49.02
2019-02-08T07:24:38.015Z,49.01
2019-02-08T07:26:08.570Z,49.01
2019-02-08T07:27:25.101Z,49.02
2019-02-08T07:28:52.185Z,48.99
2019-02-08T07:30:22.508Z,48.98
2019-02-08T07:31:46.702Z,49.00
2019-02-08T07:33:10.707Z,49.00
2019-02-08T07:34:18.910Z,49.01
2019-02-08T07:35:45.941Z,48.99
2019-02-08T07:37:17.319Z,48.97
2019-02-08T07:38:37.069Z,48.97
2019-02-08T07:39:51.298Z,49.00
2019-02-08T07:41:11.097Z,49.02
2019-02-08T07:42:24.400Z,49.02
2019-02-08T07:43:47.547Z,49.02
2019-02-08T07:45:06.720Z,48.99
2019-02-08T07:46:16.866Z,49.01
2019-02-08T07:47:38.059Z,48.99
2019-02-08T07:49:05.292Z,49.01
2019-02-08T07:50:21.172Z,49.00
2019-02-08T07:51:54.245Z,48.99
2019-02-08T07:53:18.452Z,48.99
2019-02-08T07:54:48.528Z,48.99
2019-02-08T07:56:08.690Z,48.99
2019-02-08T07:57:28.842Z,49.01
2019-02-08T07:59:08.218Z,48.99
2019-02-08T08:00:38.347Z,48.99
2019-02-08T08:01:50.196Z,48.97
2019-02-08T08:03:29.857Z,48.98
2019-02-08T08:04:54.062Z,49.00
2019-02-08T08:06:14.113Z,49.00
2019-02-08T08:07:47.355Z,48.99
2019-02-08T08:09:06.897Z,48.99
2019-02-08T08:10:14.532Z,48.99
2019-02-08T08:11:47.876Z,48.98
2019-02-08T08:13:07.808Z,48.99
2019-02-08T08:14:41.106Z,48.99
2019-02-08T08:16:00.950Z,49.00
2019-02-08T08:17:12.422Z,48.96
2019-02-08T08:18:46.444Z,48.94
2019-02-08T08:20:03.751Z,48.94
2019-02-08T08:21:37.020Z,48.93
2019-02-08T08:22:58.169Z,48.93
2019-02-08T08:24:25.130Z,48.95
2019-02-08T08:25:49.330Z,48.96
2019-02-08T08:27:13.809Z,48.97
2019-02-08T08:28:34.514Z,48.99
2019-02-08T08:29:47.561Z,48.96
2019-02-08T08:31:24.096Z,48.97
2019-02-08T08:32:29.209Z,48.98
2019-02-08T08:33:31.407Z,49.00
2019-02-08T08:34:33.614Z,48.98
2019-02-08T08:35:35.841Z,49.00
2019-02-08T08:36:38.059Z,49.00
2019-02-08T08:37:40.271Z,48.98
2019-02-08T08:38:42.490Z,48.98
2019-02-08T08:39:44.707Z,49.00
2019-02-08T08:40:46.932Z,48.97
2019-02-08T08:41:49.138Z,48.97
2019-02-08T08:42:51.287Z,48.98
2019-02-08T08:43:53.549Z,48.98
2019-02-08T08:44:55.766Z,49.00
2019-02-08T08:45:58.593Z,48.97
2019-02-08T08:47:00.795Z,48.98
2019-02-08T08:48:03.017Z,49.01
2019-02-08T08:49:05.237Z,48.96
2019-02-08T08:50:07.434Z,48.95
2019-02-08T08:51:09.671Z,48.95
2019-02-08T08:52:11.871Z,48.95
2019-02-08T08:53:14.094Z,48.97
2019-02-08T08:54:16.307Z,48.98
2019-02-08T08:55:18.513Z,48.99
2019-02-08T08:56:20.720Z,48.97
2019-02-08T08:57:22.944Z,48.98
2019-02-08T08:58:25.162Z,48.99
2019-02-08T08:59:29.228Z,48.99
2019-02-08T09:00:31.241Z,48.99
2019-02-08T09:01:33.566Z,49.00
2019-02-08T09:02:35.786Z,49.02
2019-02-08T09:03:38.000Z,48.99
2019-02-08T09:04:41.825Z,48.99
2019-02-08T09:05:44.134Z,48.99
2019-02-08T09:06:46.378Z,49.01
2019-02-08T09:07:48.602Z,49.00
2019-02-08T09:08:50.824Z,49.01
2019-02-08T09:09:53.032Z,49.01
2019-02-08T09:10:55.234Z,49.01
2019-02-08T09:11:57.397Z,49.02
2019-02-08T09:12:59.542Z,49.04
2019-02-08T09:14:01.752Z,49.01
2019-02-08T09:15:03.953Z,49.01
2019-02-08T09:16:06.167Z,49.03
2019-02-08T09:17:08.383Z,49.00
2019-02-08T09:18:10.599Z,48.98
2019-02-08T09:19:12.821Z,48.97
2019-02-08T09:20:15.027Z,48.95
2019-02-08T09:21:17.267Z,48.98
2019-02-08T09:22:19.564Z,49.03
2019-02-08T09:23:21.782Z,48.99
2019-02-08T09:24:23.982Z,49.01
2019-02-08T09:25:26.198Z,49.00
2019-02-08T09:26:28.435Z,49.00
2019-02-08T09:27:30.659Z,49.02
2019-02-08T09:28:32.861Z,49.03
2019-02-08T09:29:35.073Z,49.04
2019-02-08T09:30:37.309Z,49.04
2019-02-08T09:31:39.547Z,49.01
2019-02-08T09:32:41.751Z,49.01
2019-02-08T09:33:44.087Z,49.03
2019-02-08T09:34:46.305Z,49.03
2019-02-08T09:35:48.568Z,49.04
2019-02-08T09:36:50.783Z,49.04
2019-02-08T09:37:54.797Z,49.04
2019-02-08T09:38:56.997Z,49.04
2019-02-08T09:39:59.207Z,49.05
2019-02-08T09:41:01.422Z,49.03
2019-02-08T09:42:03.639Z,49.04
2019-02-08T09:43:05.876Z,49.04
2019-02-08T09:44:08.079Z,49.05
2019-02-08T09:45:10.294Z,49.05
2019-02-08T09:46:12.495Z,49.06
2019-02-08T09:47:14.710Z,49.03
2019-02-08T09:48:16.959Z,49.02
2019-02-08T09:49:19.169Z,49.06
2019-02-08T09:50:21.371Z,49.02
2019-02-08T09:51:23.581Z,49.08
2019-02-08T09:52:25.887Z,49.07
2019-02-08T09:53:28.105Z,49.07
2019-02-08T09:54:30.314Z,49.07
2019-02-08T09:55:32.531Z,49.06
2019-02-08T09:56:34.734Z,49.02
2019-02-08T09:57:36.938Z,49.02
2019-02-08T09:58:39.159Z,49.03
2019-02-08T09:59:41.381Z,49.06
2019-02-08T10:00:43.591Z,49.04
2019-02-08T10:01:45.807Z,49.03
2019-02-08T10:02:48.040Z,49.02
2019-02-08T10:03:50.275Z,49.05
2019-02-08T10:04:52.495Z,49.07
2019-02-08T10:05:54.743Z,49.07
2019-02-08T10:06:56.952Z,49.07
2019-02-08T10:07:59.151Z,49.08
2019-02-08T10:09:01.375Z,49.07
2019-02-08T10:10:03.575Z,49.08
2019-02-08T10:11:05.789Z,49.07
2019-02-08T10:12:07.991Z,49.07
2019-02-08T10:13:10.197Z,49.07
2019-02-08T10:14:14.231Z,49.06
2019-02-08T10:15:16.430Z,49.06
2019-02-08T10:16:18.656Z,49.06
2019-02-08T10:17:20.863Z,49.04
2019-02-08T10:18:23.150Z,49.01
2019-02-08T10:19:25.386Z,49.03
2019-02-08T10:20:27.601Z,49.00
2019-02-08T10:21:29.797Z,49.01
2019-02-08T10:22:32.012Z,49.03
2019-02-08T10:23:34.225Z,48.99
2019-02-08T10:24:36.468Z,48.98
2019-02-08T10:25:38.672Z,48.98
2019-02-08T10:26:40.886Z,48.96
2019-02-08T10:27:43.078Z,48.96
2019-02-08T10:28:45.286Z,48.97
2019-02-08T10:29:47.468Z,49.01
2019-02-08T10:30:49.753Z,48.99
2019-02-08T10:31:51.967Z,49.01
2019-02-08T10:32:54.500Z,49.01
2019-02-08T10:33:56.726Z,49.01
2019-02-08T10:34:58.956Z,49.04
2019-02-08T10:36:02.562Z,49.04
2019-02-08T10:37:04.909Z,49.03
2019-02-08T10:38:07.120Z,49.00
2019-02-08T10:39:09.354Z,49.01
2019-02-08T10:40:11.582Z,49.06
2019-02-08T10:41:13.802Z,49.04
2019-02-08T10:42:16.017Z,49.04
2019-02-08T10:43:18.230Z,49.02
2019-02-08T10:44:20.438Z,49.02
2019-02-08T10:45:22.678Z,49.00
2019-02-08T10:46:24.888Z,48.99
2019-02-08T10:47:27.092Z,48.97
2019-02-08T10:48:29.306Z,49.00
2019-02-08T10:49:31.537Z,48.99
2019-02-08T10:50:36.546Z,49.00
2019-02-08T10:51:38.749Z,49.00
2019-02-08T10:52:40.964Z,49.00
2019-02-08T10:53:43.185Z,49.03
2019-02-08T10:54:45.381Z,49.04
2019-02-08T10:55:47.724Z,49.04
2019-02-08T10:56:50.010Z,49.04
2019-02-08T10:57:52.225Z,49.05
2019-02-08T10:58:54.483Z,49.04
2019-02-08T10:59:58.470Z,49.06
2019-02-08T11:01:00.699Z,49.05
2019-02-08T11:02:03.009Z,49.01
2019-02-08T11:03:05.210Z,49.05
2019-02-08T11:04:07.420Z,49.06
2019-02-08T11:05:09.727Z,49.07
2019-02-08T11:06:11.942Z,49.09
2019-02-08T11:07:16.098Z,49.09
2019-02-08T11:08:18.021Z,49.11
2019-02-08T11:09:20.440Z,49.11
2019-02-08T11:10:22.656Z,49.09
2019-02-08T11:11:24.891Z,49.06
2019-02-08T11:12:27.110Z,49.03
2019-02-08T11:13:29.329Z,49.03
2019-02-08T11:14:31.533Z,49.03
2019-02-08T11:15:33.740Z,49.03
2019-02-08T11:16:35.967Z,49.04
2019-02-08T11:17:38.171Z,49.03
2019-02-08T11:18:40.384Z,49.05
2019-02-08T11:19:42.598Z,49.06
2019-02-08T11:20:44.816Z,49.05
2019-02-08T11:21:47.168Z,49.02
2019-02-08T11:22:49.376Z,49.00
2019-02-08T11:23:51.581Z,49.01
2019-02-08T11:24:53.796Z,49.00
2019-02-08T11:25:55.995Z,49.01
2019-02-08T11:26:58.217Z,49.01
2019-02-08T11:28:00.410Z,49.03
2019-02-08T11:29:02.610Z,49.06
2019-02-08T11:30:04.816Z,49.07
2019-02-08T11:31:07.015Z,49.07
2019-02-08T11:32:09.275Z,49.06
2019-02-08T11:33:11.486Z,49.05
2019-02-08T11:34:13.690Z,49.05
2019-02-08T11:35:17.496Z,49.07
2019-02-08T11:36:19.695Z,49.07
2019-02-08T11:37:25.144Z,49.06
2019-02-08T11:38:27.332Z,49.06
2019-02-08T11:39:29.535Z,49.06
2019-02-08T11:40:31.752Z,49.07
2019-02-08T11:41:33.956Z,49.06
2019-02-08T11:42:36.211Z,49.10
2019-02-08T11:43:38.416Z,49.09
2019-02-08T11:44:40.604Z,49.08
2019-02-08T11:45:42.799Z,49.08
2019-02-08T11:46:45.106Z,49.08
2019-02-08T11:47:47.365Z,49.10
2019-02-08T11:48:49.620Z,49.09
2019-02-08T11:49:51.825Z,49.10
2019-02-08T11:50:54.047Z,49.09
2019-02-08T11:51:56.251Z,49.11
2019-02-08T11:52:58.479Z,49.10
2019-02-08T11:54:00.857Z,49.11
2019-02-08T11:55:04.922Z,49.09
2019-02-08T11:56:06.855Z,49.09
2019-02-08T11:57:10.438Z,49.08
2019-02-08T11:58:12.635Z,49.10
2019-02-08T11:59:14.835Z,49.10
2019-02-08T12:00:17.055Z,49.08
2019-02-08T12:01:19.267Z,49.09
2019-02-08T12:02:21.485Z,49.09
2019-02-08T12:03:23.719Z,49.07
2019-02-08T12:04:28.834Z,49.08
2019-02-08T12:05:31.057Z,49.11
2019-02-08T12:06:33.385Z,49.11
2019-02-08T12:07:35.600Z,49.10
2019-02-08T12:08:37.851Z,49.11
2019-02-08T12:09:40.066Z,49.13
2019-02-08T12:10:42.289Z,49.13
2019-02-08T12:11:44.505Z,49.12
2019-02-08T12:12:46.713Z,49.11
2019-02-08T12:13:50.045Z,49.10
2019-02-08T12:14:55.028Z,49.13
2019-02-08T12:15:57.232Z,49.15
2019-02-08T12:16:59.446Z,49.14
2019-02-08T12:18:01.658Z,49.17
2019-02-08T12:19:03.856Z,49.17
2019-02-08T12:20:06.071Z,49.19
2019-02-08T12:21:08.310Z,49.19
2019-02-08T12:22:10.562Z,49.19
2019-02-08T12:23:12.777Z,49.20
2019-02-08T12:24:15.052Z,49.22
2019-02-08T12:25:17.358Z,49.21
2019-02-08T12:26:19.504Z,49.21
2019-02-08T12:27:21.714Z,49.21
2019-02-08T12:28:23.912Z,49.19
2019-02-08T12:29:26.136Z,49.19
2019-02-08T12:30:28.336Z,49.19
2019-02-08T12:31:30.553Z,49.21
2019-02-08T12:32:32.755Z,49.20
2019-02-08T12:33:35.286Z,49.20
2019-02-08T12:34:37.614Z,49.19
2019-02-08T12:35:41.031Z,49.22
2019-02-08T12:36:43.233Z,49.21
2019-02-08T12:37:45.370Z,49.21
2019-02-08T12:38:47.614Z,49.20
2019-02-08T12:39:49.832Z,49.23
2019-02-08T12:40:52.039Z,49.22
2019-02-08T12:41:54.248Z,49.25
2019-02-08T12:42:56.583Z,49.25
2019-02-08T12:43:58.833Z,49.25
2019-02-08T12:45:01.067Z,49.28
2019-02-08T12:46:03.270Z,49.27
2019-02-08T12:47:05.486Z,49.25
2019-02-08T12:48:07.709Z,49.27
2019-02-08T12:49:09.933Z,49.28
2019-02-08T12:50:12.162Z,49.28
2019-02-08T12:51:14.361Z,49.28
2019-02-08T12:52:17.798Z,49.27
2019-02-08T12:53:19.952Z,49.30
2019-02-08T12:54:22.196Z,49.33
2019-02-08T12:55:24.400Z,49.30
2019-02-08T12:56:26.606Z,49.31
2019-02-08T12:57:28.832Z,49.32
2019-02-08T12:58:31.054Z,49.32
2019-02-08T12:59:33.282Z,49.29
2019-02-08T13:00:35.490Z,49.30
2019-02-08T13:01:38.138Z,49.32
2019-02-08T13:02:40.473Z,49.33
2019-02-08T13:03:43.906Z,49.32
2019-02-08T13:04:46.119Z,49.32
2019-02-08T13:05:48.495Z,49.33
2019-02-08T13:06:51.866Z,49.31
2019-02-08T13:07:54.007Z,49.32
2019-02-08T13:08:56.232Z,49.33
2019-02-08T13:09:58.456Z,49.31
2019-02-08T13:12:21.864Z,49.31
2019-02-08T13:13:24.072Z,49.32
2019-02-08T13:14:26.295Z,49.35
2019-02-08T13:15:28.614Z,49.35
2019-02-08T13:16:30.820Z,49.35
2019-02-08T13:17:33.199Z,49.38
2019-02-08T13:18:35.427Z,49.36
2019-02-08T13:19:37.691Z,49.36
2019-02-08T13:20:43.578Z,49.39
2019-02-08T13:21:45.818Z,49.36
2019-02-08T13:22:49.167Z,49.36
2019-02-08T13:23:51.503Z,49.39
2019-02-08T13:24:55.835Z,49.40
2019-02-08T13:25:58.086Z,49.37
2019-02-08T13:27:02.272Z,49.35
2019-02-08T13:28:04.721Z,49.36
2019-02-08T13:29:06.891Z,49.40
2019-02-08T13:30:09.025Z,49.41
2019-02-08T13:31:11.238Z,49.42
2019-02-08T13:32:13.675Z,49.40
2019-02-08T13:33:16.553Z,49.41
2019-02-08T13:34:18.916Z,49.41
2019-02-08T13:35:21.131Z,49.39
2019-02-08T13:36:23.345Z,49.38
2019-02-08T13:37:25.777Z,49.39
2019-02-08T13:38:28.228Z,49.40
2019-02-08T13:39:30.439Z,49.42
2019-02-08T13:40:32.672Z,49.41
2019-02-08T13:41:34.903Z,49.43
2019-02-08T13:42:37.142Z,49.44
2019-02-08T13:43:39.354Z,49.42
2019-02-08T13:44:41.672Z,49.45
2019-02-08T13:45:44.000Z,49.43
2019-02-08T13:46:46.326Z,49.43
2019-02-08T13:47:48.523Z,49.41
2019-02-08T13:48:50.742Z,49.45
2019-02-08T13:49:52.991Z,49.45